Time;durP1;ratioP1;P1;durP2;ratioP2;P2;SDS_P1;SDS_P2;PMS_P1;PMS_P2;Temp;Humidity;BMP_temperature;BMP_pressure;BME280_temperature;BME280_humidity;BME280_pressure;Samples;Min_cycle;Max_cycle;Signal;HPM_P1;HPM_P2
2023/05/07 00:02:03;;;;;;;2.03;0.70;;;;;;;20.64;45.51;101707.59;5013714;28;20022;-40
2023/05/07 00:04:35;;;;;;;0.75;0.40;;;;;;;20.31;47.77;101705.72;5014299;28;20030;-40
2023/05/07 00:07:02;;;;;;;1.83;0.77;;;;;;;20.48;47.71;101711.16;5015226;28;20057;-41
2023/05/07 00:09:28;;;;;;;0.70;0.60;;;;;;;20.34;47.54;101707.97;5014085;28;20466;-42
2023/05/07 00:11:55;;;;;;;2.38;0.70;;;;;;;20.34;46.96;101709.88;5013840;28;20042;-41
2023/05/07 00:14:21;;;;;;;1.75;0.60;;;;;;;20.35;45.73;101712.31;5013318;28;20026;-40
2023/05/07 00:16:47;;;;;;;1.00;0.70;;;;;;;20.18;46.77;101709.63;5025990;28;20397;-44
2023/05/07 00:19:14;;;;;;;0.70;0.55;;;;;;;20.36;49.00;101705.00;5014944;28;20030;-43
2023/05/07 00:21:40;;;;;;;1.55;0.50;;;;;;;20.47;45.57;101706.81;5016004;28;20478;-42
2023/05/07 00:24:06;;;;;;;1.50;0.63;;;;;;;20.40;46.46;101709.69;5013723;28;20494;-44
2023/05/07 00:26:33;;;;;;;1.25;0.55;;;;;;;20.39;46.56;101709.94;5013538;28;20033;-43
2023/05/07 00:28:59;;;;;;;1.48;0.75;;;;;;;20.29;48.20;101716.03;5013362;28;20429;-43
2023/05/07 00:31:26;;;;;;;1.77;0.85;;;;;;;20.28;48.00;101706.25;5020181;28;20056;-42
2023/05/07 00:33:52;;;;;;;1.35;0.50;;;;;;;19.90;46.17;101712.44;5033527;28;20136;-43
2023/05/07 00:36:18;;;;;;;2.80;0.80;;;;;;;19.60;47.35;101708.16;5022478;28;20029;-44
2023/05/07 00:38:44;;;;;;;2.95;0.75;;;;;;;19.47;50.48;101716.56;5022916;28;20461;-43
2023/05/07 00:41:11;;;;;;;1.80;0.70;;;;;;;19.60;50.47;101708.16;5013158;28;20109;-45
2023/05/07 00:43:38;;;;;;;2.85;1.10;;;;;;;19.69;51.15;101706.66;5012828;28;20105;-43
2023/05/07 00:46:05;;;;;;;1.90;1.05;;;;;;;19.36;52.98;101706.59;5013576;28;20041;-43
2023/05/07 00:48:31;;;;;;;1.35;0.90;;;;;;;19.43;50.10;101713.53;5013068;28;20026;-43
2023/05/07 00:50:58;;;;;;;1.20;0.60;;;;;;;19.52;50.62;101703.06;5013131;28;20026;-45
2023/05/07 00:53:25;;;;;;;1.08;0.60;;;;;;;19.75;50.13;101708.41;5013412;28;20561;-43
2023/05/07 00:55:51;;;;;;;1.60;1.08;;;;;;;19.59;51.13;101711.91;5013059;28;20026;-43
2023/05/07 00:58:17;;;;;;;1.63;0.65;;;;;;;19.40;51.44;101707.75;5013138;28;20033;-45
2023/05/07 01:00:43;;;;;;;3.05;1.00;;;;;;;19.61;51.63;101714.41;5013278;28;20498;-43
2023/05/07 01:03:10;;;;;;;2.83;1.00;;;;;;;18.88;50.39;101714.09;5012750;28;20454;-43
2023/05/07 01:05:36;;;;;;;1.50;0.70;;;;;;;18.48;52.32;101716.69;5012873;28;20037;-46
2023/05/07 01:08:04;;;;;;;1.73;0.65;;;;;;;18.15;52.81;101715.41;5012787;28;20034;-44
2023/05/07 01:10:31;;;;;;;1.52;0.70;;;;;;;17.76;52.62;101724.19;5012721;28;20053;-46
2023/05/07 01:13:00;;;;;;;1.63;0.60;;;;;;;17.88;53.21;101722.34;5012816;28;20025;-46
2023/05/07 01:15:26;;;;;;;3.20;0.95;;;;;;;17.93;53.46;101722.47;5012806;28;20038;-43
2023/05/07 01:17:52;;;;;;;1.48;0.60;;;;;;;17.95;52.35;101723.06;4995086;28;20044;-44
2023/05/07 01:20:19;;;;;;;1.75;0.80;;;;;;;17.57;53.47;101721.53;5012930;28;20045;-43
2023/05/07 01:22:46;;;;;;;2.25;1.08;;;;;;;17.88;54.20;101727.78;5011641;28;20022;-43
2023/05/07 01:25:13;;;;;;;1.67;0.63;;;;;;;18.15;54.35;101728.97;5012836;28;20434;-44
2023/05/07 01:27:41;;;;;;;2.50;0.77;;;;;;;18.27;52.72;101714.63;5012474;28;20057;-45
2023/05/07 01:30:08;;;;;;;1.52;1.33;;;;;;;17.96;52.32;101723.88;5011945;28;20022;-43
2023/05/07 01:33:00;;;;;;;1.38;0.80;;;;;;;17.67;52.86;101724.50;5012221;28;20025;-44
2023/05/07 01:35:36;;;;;;;4.65;0.85;;;;;;;17.47;53.56;101728.56;5003213;28;20037;-45
2023/05/07 01:38:05;;;;;;;1.02;0.73;;;;;;;16.85;53.00;101720.63;5024365;28;20044;-46
2023/05/07 01:40:32;;;;;;;1.83;0.90;;;;;;;17.25;54.36;101714.72;5029526;28;20026;-44
2023/05/07 01:42:58;;;;;;;1.95;0.93;;;;;;;17.13;54.72;101720.06;5029656;28;20115;-43
2023/05/07 01:45:25;;;;;;;2.47;1.20;;;;;;;17.20;54.07;101728.91;5039337;28;20025;-43
2023/05/07 01:47:52;;;;;;;6.05;0.90;;;;;;;16.83;54.19;101730.84;5032228;28;20064;-43
2023/05/07 01:50:19;;;;;;;1.10;0.70;;;;;;;16.41;54.37;101727.94;5021277;28;20021;-44
2023/05/07 01:52:46;;;;;;;1.38;0.80;;;;;;;16.67;56.37;101734.13;5031884;28;20026;-46
2023/05/07 01:55:12;;;;;;;1.80;0.90;;;;;;;16.96;56.10;101725.28;5026339;28;20034;-44
2023/05/07 01:57:38;;;;;;;2.17;1.00;;;;;;;16.88;57.33;101726.41;5012088;28;20356;-42
2023/05/07 02:00:05;;;;;;;2.05;0.95;;;;;;;16.84;56.92;101718.97;5012347;28;20026;-42
2023/05/07 02:02:32;;;;;;;2.25;1.00;;;;;;;16.90;57.80;101720.78;5018396;28;20484;-43
2023/05/07 02:04:58;;;;;;;2.20;0.90;;;;;;;16.86;54.31;101720.38;5031831;28;20101;-43
2023/05/07 02:07:24;;;;;;;0.80;0.75;;;;;;;17.12;54.92;101713.84;5013557;28;20474;-42
2023/05/07 02:09:51;;;;;;;1.73;1.00;;;;;;;17.23;54.59;101714.13;5019228;28;20028;-42
2023/05/07 02:12:17;;;;;;;1.67;0.80;;;;;;;17.10;54.96;101718.66;5024812;28;20048;-42
2023/05/07 02:14:43;;;;;;;3.05;0.80;;;;;;;16.93;55.53;101723.00;5022271;28;20124;-42
2023/05/07 02:17:09;;;;;;;1.80;0.85;;;;;;;16.67;55.26;101726.00;5031490;28;20022;-42
2023/05/07 02:19:36;;;;;;;3.47;1.00;;;;;;;16.62;56.23;101730.22;5031628;28;20121;-42
2023/05/07 02:22:02;;;;;;;1.88;1.05;;;;;;;16.41;58.25;101727.94;5022476;28;20182;-42
2023/05/07 02:24:28;;;;;;;2.63;1.10;;;;;;;16.45;58.04;101729.16;5023447;28;20039;-42
2023/05/07 02:26:54;;;;;;;2.65;0.95;;;;;;;16.41;58.83;101732.50;5031181;28;20541;-42
2023/05/07 02:29:20;;;;;;;1.77;1.05;;;;;;;16.12;59.57;101736.72;5030941;28;20037;-42
2023/05/07 02:31:50;;;;;;;2.65;1.20;;;;;;;15.93;59.96;101736.66;5030943;28;20112;-43
2023/05/07 02:34:20;;;;;;;3.63;1.20;;;;;;;15.56;60.40;101731.09;5031571;28;20120;-42
2023/05/07 02:36:46;;;;;;;1.70;0.98;;;;;;;15.61;60.28;101741.22;5013330;28;20322;-42
2023/05/07 02:39:13;;;;;;;2.95;1.15;;;;;;;15.50;61.79;101737.34;5031481;28;20048;-42
2023/05/07 02:41:39;;;;;;;1.95;1.20;;;;;;;15.65;60.75;101745.16;5012276;28;20359;-42
2023/05/07 02:44:06;;;;;;;1.88;1.40;;;;;;;15.18;63.50;101747.25;5015890;28;20038;-43
2023/05/07 02:46:32;;;;;;;1.58;1.27;;;;;;;15.09;63.75;101751.22;5015496;28;20360;-42
2023/05/07 02:48:58;;;;;;;1.85;1.30;;;;;;;15.08;63.96;101746.06;5015340;28;20084;-42
2023/05/07 02:51:25;;;;;;;2.03;1.27;;;;;;;14.87;64.75;101760.66;5052697;23;20069;-42
2023/05/07 02:53:52;;;;;;;2.55;1.40;;;;;;;15.04;64.20;101754.56;5055212;28;20069;-42
2023/05/07 02:56:18;;;;;;;3.78;1.50;;;;;;;14.94;63.27;101754.22;5055160;28;20481;-43
2023/05/07 02:58:44;;;;;;;2.72;1.40;;;;;;;14.99;63.66;101757.09;5055297;28;20044;-43
2023/05/07 03:01:11;;;;;;;1.67;1.27;;;;;;;15.09;63.01;101762.03;5054685;28;20033;-43
2023/05/07 03:03:37;;;;;;;3.15;1.58;;;;;;;15.03;63.75;101760.19;5054822;28;20032;-44
2023/05/07 03:06:03;;;;;;;1.60;1.15;;;;;;;15.07;62.31;101763.28;5054858;28;20025;-41
2023/05/07 03:08:30;;;;;;;1.27;1.17;;;;;;;14.95;62.42;101763.13;5055285;28;20098;-42
2023/05/07 03:10:56;;;;;;;3.28;1.30;;;;;;;14.92;62.86;101764.34;5054667;28;20033;-42
2023/05/07 03:13:23;;;;;;;3.38;1.45;;;;;;;14.73;63.93;101763.38;5055083;28;20037;-43
2023/05/07 03:15:49;;;;;;;3.28;1.40;;;;;;;14.76;64.28;101767.50;5054817;28;20025;-42
2023/05/07 03:18:15;;;;;;;3.80;1.20;;;;;;;14.81;63.15;101764.19;5045857;28;20061;-42
2023/05/07 03:20:41;;;;;;;4.38;1.40;;;;;;;14.75;63.67;101765.84;5044204;28;20059;-42
2023/05/07 03:23:08;;;;;;;1.92;1.10;;;;;;;14.63;64.13;101762.16;5054606;28;20040;-42
2023/05/07 03:25:34;;;;;;;1.17;1.00;;;;;;;14.53;65.84;101762.59;5054549;28;20501;-43
2023/05/07 03:28:00;;;;;;;1.50;1.27;;;;;;;14.44;66.76;101761.97;5054687;28;20107;-42
2023/05/07 03:30:26;;;;;;;3.05;1.30;;;;;;;14.57;66.15;101763.81;5054820;28;20039;-41
2023/05/07 03:32:52;;;;;;;3.05;1.13;;;;;;;14.68;65.77;101765.06;5054369;28;20540;-43
2023/05/07 03:35:19;;;;;;;2.80;1.27;;;;;;;14.38;65.48;101764.63;5054399;28;20078;-42
2023/05/07 03:37:45;;;;;;;1.98;1.40;;;;;;;14.50;65.95;101768.41;5054085;28;20385;-41
2023/05/07 03:40:12;;;;;;;3.20;1.67;;;;;;;14.39;66.58;101767.13;5054201;28;20079;-42
2023/05/07 03:42:38;;;;;;;3.35;1.40;;;;;;;14.49;65.86;101764.03;5036406;28;20021;-43
2023/05/07 03:45:05;;;;;;;2.22;1.40;;;;;;;14.48;65.16;101765.06;5054578;28;20373;-42
2023/05/07 03:47:31;;;;;;;2.20;1.40;;;;;;;14.37;65.70;101763.81;5030221;28;20508;-44
2023/05/07 03:49:57;;;;;;;3.13;1.00;;;;;;;14.42;64.27;101771.28;5014361;28;20046;-43
2023/05/07 03:52:25;;;;;;;3.70;1.20;;;;;;;14.46;63.67;101762.56;5014276;28;20022;-42
2023/05/07 03:54:53;;;;;;;3.58;1.10;;;;;;;14.36;64.34;101762.16;5024972;28;20044;-44
2023/05/07 03:57:20;;;;;;;2.38;1.27;;;;;;;14.25;64.43;101760.91;5034094;28;20049;-43
2023/05/07 03:59:46;;;;;;;1.65;1.10;;;;;;;14.30;63.51;101757.59;5034149;28;20025;-42
2023/05/07 04:02:12;;;;;;;1.48;1.10;;;;;;;14.20;64.28;101770.66;5033526;28;20022;-44
2023/05/07 04:04:38;;;;;;;1.70;1.23;;;;;;;14.05;64.56;101772.72;5015135;28;20034;-43
2023/05/07 04:07:05;;;;;;;2.20;1.13;;;;;;;14.16;64.74;101769.44;5014521;28;20030;-44
2023/05/07 04:09:31;;;;;;;1.58;1.27;;;;;;;14.12;64.98;101768.19;5014214;28;20026;-43
2023/05/07 04:11:57;;;;;;;1.85;1.48;;;;;;;14.15;65.58;101775.81;5025624;28;20359;-42
2023/05/07 04:14:23;;;;;;;5.13;1.60;;;;;;;13.93;65.70;101778.72;5033792;28;20435;-43
2023/05/07 04:16:49;;;;;;;2.03;1.15;;;;;;;13.94;64.86;101774.19;5034214;28;20101;-44
2023/05/07 04:19:16;;;;;;;3.70;1.60;;;;;;;13.96;64.67;101778.31;5014696;28;20040;-43
2023/05/07 04:21:42;;;;;;;3.38;1.75;;;;;;;14.06;64.15;101777.09;5014859;28;20382;-42
2023/05/07 04:24:08;;;;;;;4.88;1.70;;;;;;;13.89;64.41;101782.88;5013885;28;20104;-43
2023/05/07 04:26:34;;;;;;;2.70;1.50;;;;;;;13.88;64.65;101786.59;5013964;28;20037;-44
2023/05/07 04:29:01;;;;;;;3.00;1.88;;;;;;;13.86;64.93;101785.94;5021923;28;20053;-42
2023/05/07 04:31:27;;;;;;;2.88;1.75;;;;;;;13.87;64.86;101784.91;5031331;28;20474;-42
2023/05/07 04:33:53;;;;;;;2.40;1.63;;;;;;;13.83;65.04;101791.75;5033429;28;20064;-43
2023/05/07 04:36:19;;;;;;;2.75;1.50;;;;;;;13.97;65.10;101792.59;5029398;28;20489;-42
2023/05/07 04:38:46;;;;;;;2.50;1.42;;;;;;;13.83;65.53;101796.31;5025372;28;20076;-42
2023/05/07 04:41:13;;;;;;;3.33;1.65;;;;;;;13.74;66.12;101796.50;5013781;28;20113;-42
2023/05/07 04:43:40;;;;;;;3.83;1.80;;;;;;;13.82;65.96;101790.06;5018682;28;20033;-42
2023/05/07 04:46:06;;;;;;;3.47;1.77;;;;;;;13.83;66.28;101799.84;5022338;28;20462;-43
2023/05/07 04:48:32;;;;;;;3.88;1.92;;;;;;;13.84;65.93;101801.47;5053527;23;20055;-42
2023/05/07 04:50:58;;;;;;;3.90;1.55;;;;;;;13.80;66.38;101797.53;5050377;28;20032;-42
2023/05/07 04:53:24;;;;;;;3.38;2.72;;;;;;;13.76;67.07;101801.66;5050329;28;20098;-43
2023/05/07 04:55:56;;;;;;;2.55;1.98;;;;;;;13.81;66.86;101801.06;5051387;28;20021;-42
2023/05/07 04:58:23;;;;;;;5.32;3.42;;;;;;;13.79;67.19;101809.34;5052949;28;20029;-42
2023/05/07 05:00:49;;;;;;;3.83;2.72;;;;;;;13.73;67.43;101813.66;5051889;28;20021;-43
2023/05/07 05:03:16;;;;;;;3.40;1.70;;;;;;;13.80;66.79;101811.00;5046050;28;20031;-43
2023/05/07 05:05:42;;;;;;;2.55;1.50;;;;;;;13.77;66.40;101808.72;5045166;28;20087;-42
2023/05/07 05:08:08;;;;;;;2.47;1.20;;;;;;;13.69;65.95;101815.09;5050488;28;20112;-44
2023/05/07 05:10:34;;;;;;;4.78;1.63;;;;;;;13.64;65.78;101806.81;5050616;28;20029;-43
2023/05/07 05:13:01;;;;;;;4.65;1.13;;;;;;;13.54;65.82;101808.22;5052765;28;20108;-42
2023/05/07 05:15:27;;;;;;;4.50;1.33;;;;;;;13.51;65.61;101814.03;5052637;28;20112;-43
2023/05/07 05:17:53;;;;;;;2.28;1.40;;;;;;;13.60;65.16;101815.47;5052700;28;20024;-43
2023/05/07 05:20:19;;;;;;;3.05;1.40;;;;;;;13.50;65.15;101809.69;5052300;28;20028;-42
2023/05/07 05:22:45;;;;;;;2.95;1.48;;;;;;;13.41;65.47;101804.47;5052356;28;20108;-42
2023/05/07 05:25:12;;;;;;;3.17;1.92;;;;;;;13.42;65.79;101816.88;5052473;28;20112;-43
2023/05/07 05:27:38;;;;;;;3.45;1.73;;;;;;;13.44;66.00;101814.81;5052469;28;20024;-42
2023/05/07 05:30:05;;;;;;;0.95;0.93;;;;;;;13.64;64.69;101814.06;5052241;28;20493;-43
2023/05/07 05:32:31;;;;;;;2.55;1.50;;;;;;;13.30;65.32;101821.16;5052204;28;20099;-44
2023/05/07 05:34:58;;;;;;;2.55;1.30;;;;;;;13.17;65.54;101810.34;5052463;28;20028;-42
2023/05/07 05:37:25;;;;;;;2.15;1.40;;;;;;;13.25;65.76;101818.25;5052014;28;20025;-42
2023/05/07 05:39:52;;;;;;;4.10;1.52;;;;;;;13.20;65.91;101828.72;5035868;28;20033;-43
2023/05/07 05:42:18;;;;;;;4.07;1.60;;;;;;;13.01;66.24;101826.78;5032199;28;20033;-43
2023/05/07 05:44:44;;;;;;;3.17;1.48;;;;;;;12.94;66.77;101824.06;5032172;28;20040;-42
2023/05/07 05:47:11;;;;;;;2.38;1.42;;;;;;;12.93;66.57;101822.38;5041293;28;20037;-42
2023/05/07 05:49:37;;;;;;;4.43;1.60;;;;;;;12.99;66.38;101829.66;5052115;28;20096;-42
2023/05/07 05:52:03;;;;;;;2.88;1.40;;;;;;;12.95;66.79;101823.03;5052185;28;20021;-41
2023/05/07 05:54:30;;;;;;;2.83;1.48;;;;;;;12.86;66.57;101825.03;5051924;28;20025;-43
2023/05/07 05:56:56;;;;;;;1.40;1.25;;;;;;;12.81;66.80;101829.34;5052252;28;20117;-42
2023/05/07 05:59:23;;;;;;;2.53;1.40;;;;;;;12.83;66.78;101822.75;5051905;28;20175;-42
2023/05/07 06:01:49;;;;;;;3.13;1.40;;;;;;;12.74;67.46;101826.59;5051577;28;20025;-42
2023/05/07 06:04:16;;;;;;;4.40;1.70;;;;;;;12.89;66.66;101819.28;5051520;28;20033;-43
2023/05/07 06:06:42;;;;;;;6.55;1.80;;;;;;;12.95;66.55;101825.72;5032266;28;20467;-42
2023/05/07 06:09:09;;;;;;;4.18;1.50;;;;;;;12.68;67.09;101822.84;5032153;28;20021;-41
2023/05/07 06:11:35;;;;;;;5.80;1.73;;;;;;;12.67;67.64;101825.75;5048448;28;20071;-42
2023/05/07 06:14:02;;;;;;;2.42;1.20;;;;;;;12.60;67.74;101827.53;5049886;28;20118;-43
2023/05/07 06:16:28;;;;;;;5.57;1.48;;;;;;;12.63;67.92;101819.09;5051177;28;20114;-42
2023/05/07 06:18:54;;;;;;;2.47;1.60;;;;;;;12.55;67.87;101821.94;5037167;28;20426;-42
2023/05/07 06:21:21;;;;;;;3.67;1.50;;;;;;;12.61;67.78;101829.22;5044805;28;20032;-42
2023/05/07 06:23:47;;;;;;;4.53;1.95;;;;;;;12.53;68.03;101823.97;5051486;28;20090;-42
2023/05/07 06:26:13;;;;;;;3.90;1.55;;;;;;;12.55;67.80;101833.50;5033776;28;20506;-43
2023/05/07 06:28:39;;;;;;;2.15;1.83;;;;;;;12.52;67.91;101833.88;5051607;28;20477;-41
2023/05/07 06:31:17;;;;;;;1.90;1.30;;;;;;;12.54;67.83;101829.13;5051679;28;20033;-43
2023/05/07 06:33:45;;;;;;;2.58;1.75;;;;;;;12.48;67.97;101829.91;5051344;28;20381;-42
2023/05/07 06:36:11;;;;;;;5.65;2.10;;;;;;;12.59;67.50;101831.25;5049663;28;20017;-43
2023/05/07 06:38:37;;;;;;;5.60;1.88;;;;;;;12.43;68.02;101827.81;5051376;28;20551;-42
2023/05/07 06:41:05;;;;;;;3.85;1.90;;;;;;;12.40;68.12;101832.75;5048390;28;20025;-42
2023/05/07 06:43:32;;;;;;;2.10;1.48;;;;;;;12.24;68.66;101830.34;5049196;28;20061;-42
2023/05/07 06:45:58;;;;;;;4.95;2.17;;;;;;;12.22;68.89;101827.84;5049139;28;20466;-42
2023/05/07 06:48:24;;;;;;;4.55;1.80;;;;;;;12.14;68.99;101825.28;5049824;28;20045;-42
2023/05/07 06:50:51;;;;;;;4.45;1.85;;;;;;;12.18;69.05;101828.44;5031861;23;20046;-41
2023/05/07 06:53:17;;;;;;;6.10;2.10;;;;;;;12.07;69.47;101832.44;5036785;28;20029;-42
2023/05/07 06:55:43;;;;;;;4.50;1.83;;;;;;;12.02;69.50;101832.19;5037776;28;20386;-42
2023/05/07 06:58:09;;;;;;;4.43;2.03;;;;;;;11.95;69.49;101826.75;5043799;28;20473;-42
2023/05/07 07:00:36;;;;;;;4.78;1.98;;;;;;;11.99;69.52;101829.88;5033023;28;20057;-41
2023/05/07 07:03:02;;;;;;;3.60;2.08;;;;;;;11.90;69.76;101829.19;5030270;28;20049;-42
2023/05/07 07:05:28;;;;;;;9.10;2.13;;;;;;;11.81;69.87;101822.22;5030173;28;20064;-42
2023/05/07 07:07:54;;;;;;;3.45;1.90;;;;;;;11.79;69.99;101824.28;5014486;28;20075;-41
2023/05/07 07:10:21;;;;;;;3.90;2.13;;;;;;;11.87;69.73;101827.69;5028850;28;20516;-41
2023/05/07 07:12:48;;;;;;;3.55;2.25;;;;;;;11.88;69.99;101829.38;5033944;28;20025;-41
2023/05/07 07:15:15;;;;;;;4.35;2.45;;;;;;;11.85;70.12;101829.75;5035111;28;20177;-42
2023/05/07 07:17:41;;;;;;;4.55;2.50;;;;;;;11.80;70.07;101821.41;5043391;28;20590;-42
2023/05/07 07:20:08;;;;;;;5.63;2.10;;;;;;;11.67;70.48;101823.97;5031126;28;20482;-42
2023/05/07 07:22:34;;;;;;;5.03;2.80;;;;;;;11.64;70.92;101818.97;5030842;28;20021;-42
2023/05/07 07:25:01;;;;;;;6.13;2.95;;;;;;;11.69;70.70;101813.03;5031054;28;20037;-41
2023/05/07 07:27:27;;;;;;;5.50;2.80;;;;;;;11.61;70.70;101820.19;5034976;28;20033;-42
2023/05/07 07:29:53;;;;;;;4.25;2.33;;;;;;;11.39;71.48;101825.69;5039323;28;20125;-41
2023/05/07 07:32:19;;;;;;;4.22;2.15;;;;;;;11.41;71.27;101823.63;5034742;28;20025;-42
2023/05/07 07:34:46;;;;;;;5.10;2.75;;;;;;;11.27;71.47;101825.31;5034561;28;20030;-41
2023/05/07 07:37:13;;;;;;;4.90;2.70;;;;;;;11.28;71.55;101827.81;5034978;28;20101;-42
2023/05/07 07:39:39;;;;;;;3.25;2.47;;;;;;;11.20;71.80;101827.91;5026963;28;20029;-41
2023/05/07 07:42:05;;;;;;;10.35;3.50;;;;;;;11.15;71.83;101829.47;5046175;28;20021;-41
2023/05/07 07:44:31;;;;;;;6.50;3.55;;;;;;;11.26;72.31;101835.19;5054419;28;20031;-41
2023/05/07 07:46:58;;;;;;;4.45;2.90;;;;;;;11.17;72.87;101828.28;5038002;28;20481;-41
2023/05/07 07:49:24;;;;;;;8.38;3.53;;;;;;;11.12;73.13;101830.69;5034471;28;20045;-42
2023/05/07 07:51:51;;;;;;;5.53;2.95;;;;;;;11.13;74.28;101831.53;5033834;28;20183;-42
2023/05/07 07:54:17;;;;;;;7.57;3.20;;;;;;;11.22;73.96;101825.06;5034343;28;20029;-41
2023/05/07 07:56:43;;;;;;;8.52;3.33;;;;;;;11.27;73.74;101819.94;5034122;28;20113;-40
2023/05/07 07:59:09;;;;;;;5.70;3.05;;;;;;;10.91;74.99;101825.22;5053531;28;20108;-40
2023/05/07 08:01:35;;;;;;;5.97;2.80;;;;;;;11.10;74.62;101817.50;5053841;28;20025;-41
2023/05/07 08:04:03;;;;;;;4.88;2.90;;;;;;;10.89;75.50;101819.25;5038313;28;20422;-41
2023/05/07 08:06:29;;;;;;;5.25;2.95;;;;;;;10.95;75.21;101815.81;5034105;28;20109;-42
2023/05/07 08:08:56;;;;;;;4.95;2.42;;;;;;;10.91;75.13;101818.03;5033719;28;20033;-41
2023/05/07 08:11:22;;;;;;;4.47;2.63;;;;;;;10.77;75.72;101817.00;5033860;28;20025;-41
2023/05/07 08:13:48;;;;;;;2.85;2.30;;;;;;;10.64;76.03;101816.78;5032934;28;20104;-41
2023/05/07 08:16:15;;;;;;;5.32;2.42;;;;;;;10.56;76.21;101820.41;5032441;28;20040;-41
2023/05/07 08:18:41;;;;;;;4.05;2.30;;;;;;;10.54;75.94;101818.91;5029333;28;20030;-41
2023/05/07 08:21:07;;;;;;;5.47;2.50;;;;;;;10.51;76.04;101822.78;5036679;28;20478;-41
2023/05/07 08:23:34;;;;;;;3.90;2.50;;;;;;;10.50;75.88;101812.25;5039878;28;20051;-42
2023/05/07 08:26:00;;;;;;;3.30;2.58;;;;;;;10.48;75.95;101811.59;5049424;28;20474;-41
2023/05/07 08:28:27;;;;;;;10.52;4.85;;;;;;;10.28;77.33;101808.63;5046380;28;20021;-41
2023/05/07 08:30:53;;;;;;;8.95;3.50;;;;;;;9.94;78.84;101809.03;5053339;28;20025;-41
2023/05/07 08:33:19;;;;;;;4.90;2.90;;;;;;;10.15;77.72;101806.50;5053640;28;20021;-41
2023/05/07 08:35:46;;;;;;;6.47;3.25;;;;;;;10.44;76.19;101811.16;5053584;28;20020;-42
2023/05/07 08:38:12;;;;;;;6.68;3.17;;;;;;;10.33;76.21;101808.91;5035915;28;20030;-41
2023/05/07 08:40:40;;;;;;;4.57;3.22;;;;;;;10.35;75.80;101808.72;5045601;28;20029;-41
2023/05/07 08:43:07;;;;;;;3.88;2.72;;;;;;;10.26;76.03;101813.28;5047756;28;20034;-43
2023/05/07 08:45:35;;;;;;;3.25;2.50;;;;;;;10.20;75.85;101806.78;5033562;28;20075;-41
2023/05/07 08:48:03;;;;;;;5.80;2.85;;;;;;;10.11;76.51;101807.88;5033320;28;20513;-42
2023/05/07 08:50:29;;;;;;;4.97;2.55;;;;;;;10.04;76.80;101805.06;5032795;28;20160;-42
2023/05/07 08:52:56;;;;;;;5.03;2.45;;;;;;;10.10;76.27;101806.19;5033188;28;20101;-41
2023/05/07 08:55:23;;;;;;;6.45;2.55;;;;;;;10.21;75.74;101795.06;5033344;28;20391;-41
2023/05/07 08:57:52;;;;;;;6.30;2.63;;;;;;;10.10;76.16;101800.84;5033375;28;20112;-41
2023/05/07 09:00:18;;;;;;;3.85;2.70;;;;;;;10.05;76.19;101804.09;5032670;28;20021;-42
2023/05/07 09:02:44;;;;;;;7.80;2.80;;;;;;;10.03;76.29;101798.06;5032973;28;20029;-41
2023/05/07 09:05:11;;;;;;;6.75;2.70;;;;;;;10.00;76.19;101798.44;5032973;28;20038;-41
2023/05/07 09:07:37;;;;;;;5.63;2.97;;;;;;;10.04;75.88;101804.22;5033035;28;20103;-42
2023/05/07 09:10:05;;;;;;;6.97;3.10;;;;;;;10.01;75.93;101793.91;5033017;28;20025;-41
2023/05/07 09:12:31;;;;;;;6.68;2.83;;;;;;;9.97;76.18;101798.78;5033015;28;20025;-41
2023/05/07 09:14:59;;;;;;;4.25;2.83;;;;;;;9.69;76.88;101795.78;5033093;28;20033;-42
2023/05/07 09:17:25;;;;;;;3.83;2.80;;;;;;;9.72;76.91;101802.66;5012274;28;20077;-41
2023/05/07 09:19:53;;;;;;;5.47;2.70;;;;;;;9.76;76.86;101804.75;5013183;28;20024;-42
2023/05/07 09:22:19;;;;;;;4.80;2.40;;;;;;;9.82;76.34;101799.72;5022228;28;20035;-41
2023/05/07 09:24:50;;;;;;;4.40;2.10;;;;;;;9.81;76.44;101806.09;5030401;28;20073;-42
2023/05/07 09:27:17;;;;;;;2.47;2.05;;;;;;;9.79;76.28;101800.91;5031704;28;20087;-41
2023/05/07 09:29:44;;;;;;;3.03;2.00;;;;;;;9.76;76.10;101802.09;5030370;28;20128;-41
2023/05/07 09:32:11;;;;;;;5.75;2.45;;;;;;;9.76;76.02;101795.91;5030177;28;20037;-41
2023/05/07 09:34:37;;;;;;;5.38;2.88;;;;;;;9.76;76.23;101799.41;5030240;28;20030;-41
2023/05/07 09:37:04;;;;;;;5.50;2.17;;;;;;;9.57;77.14;101799.06;5047522;28;20024;-41
2023/05/07 09:39:45;;;;;;;6.60;2.10;;;;;;;9.69;76.94;101801.13;5050086;28;20029;-40
2023/05/07 09:42:12;;;;;;;6.97;2.42;;;;;;;9.69;76.45;101794.97;5032199;28;20033;-41
2023/05/07 09:44:39;;;;;;;6.13;2.40;;;;;;;9.58;76.96;101798.88;5032230;28;20029;-41
2023/05/07 09:47:06;;;;;;;9.90;2.65;;;;;;;9.41;78.42;101802.63;5032343;28;20021;-41
2023/05/07 09:49:36;;;;;;;5.85;2.70;;;;;;;9.32;78.72;101803.69;5047490;23;20108;-41
2023/05/07 09:52:06;;;;;;;4.60;3.15;;;;;;;9.18;78.98;101798.06;5050935;28;20020;-41
2023/05/07 09:54:33;;;;;;;5.22;2.85;;;;;;;9.28;79.10;101794.38;5051920;28;20093;-41
2023/05/07 09:57:02;;;;;;;8.00;2.63;;;;;;;9.15;79.82;101793.06;5052060;28;20393;-41
2023/05/07 09:59:31;;;;;;;5.72;2.97;;;;;;;9.07;80.04;101792.28;5052134;28;20477;-41
2023/05/07 10:01:59;;;;;;;5.00;2.65;;;;;;;9.16;79.80;101794.75;5051791;28;20040;-42
2023/05/07 10:04:26;;;;;;;5.75;2.58;;;;;;;9.06;80.26;101799.47;5051813;28;20463;-41
2023/05/07 10:06:53;;;;;;;3.13;2.45;;;;;;;9.25;79.26;101795.53;5051938;28;20029;-41
2023/05/07 10:09:23;;;;;;;7.13;2.95;;;;;;;9.07;80.09;101794.94;5051522;28;20025;-41
2023/05/07 10:11:50;;;;;;;6.00;2.65;;;;;;;8.87;81.37;101786.50;5038657;28;20025;-41
2023/05/07 10:14:17;;;;;;;5.25;2.88;;;;;;;8.58;83.29;101798.56;5031638;28;20021;-41
2023/05/07 10:16:44;;;;;;;3.67;2.63;;;;;;;8.64;83.31;101805.91;5032000;28;20399;-41
2023/05/07 10:19:10;;;;;;;6.95;3.00;;;;;;;8.72;83.29;101792.56;5040653;28;20021;-41
2023/05/07 10:21:38;;;;;;;7.70;3.10;;;;;;;8.68;83.36;101793.88;5051344;28;20363;-42
2023/05/07 10:24:13;;;;;;;7.80;3.30;;;;;;;8.95;82.52;101789.97;5033734;28;20029;-40
2023/05/07 10:26:44;;;;;;;6.47;2.72;;;;;;;9.06;81.99;101786.09;5051614;28;20025;-41
2023/05/07 10:29:29;;;;;;;10.00;2.85;;;;;;;9.00;81.81;101789.47;5041471;28;20779;-40
2023/05/07 10:32:00;;;;;;;3.92;2.30;;;;;;;9.04;81.56;101788.09;5031534;28;20024;-41
2023/05/07 10:34:36;;;;;;;6.03;3.20;;;;;;;8.94;81.66;101787.50;5031570;28;20029;-41
2023/05/07 10:37:03;;;;;;;3.72;2.45;;;;;;;8.83;82.05;101782.50;5050325;28;20075;-40
2023/05/07 10:39:30;;;;;;;7.28;2.53;;;;;;;8.98;81.09;101778.94;5050361;28;20033;-40
2023/05/07 10:42:07;;;;;;;6.68;2.60;;;;;;;9.14;80.16;101780.72;5045344;28;20401;-41
2023/05/07 10:44:33;;;;;;;7.15;2.80;;;;;;;9.04;80.36;101774.75;5030839;28;20040;-42
2023/05/07 10:47:12;;;;;;;3.88;2.65;;;;;;;9.12;79.84;101777.41;5028149;28;20038;-41
2023/05/07 10:49:44;;;;;;;6.18;3.00;;;;;;;9.04;80.07;101779.25;5023334;28;20058;-41
2023/05/07 10:52:23;;;;;;;4.90;2.85;;;;;;;8.88;80.11;101777.47;5011795;28;20037;-41
2023/05/07 10:55:15;;;;;;;6.47;2.88;;;;;;;8.39;82.29;101781.09;5028667;28;20029;-41
2023/05/07 10:57:41;;;;;;;6.78;3.10;;;;;;;8.11;84.07;101780.59;5031500;28;20033;-40
2023/05/07 11:00:25;;;;;;;6.22;2.60;;;;;;;8.00;84.88;101780.09;5030794;28;20071;-41
2023/05/07 11:03:01;;;;;;;4.32;2.70;;;;;;;8.15;84.04;101778.41;5033222;28;20478;-41
2023/05/07 11:05:27;;;;;;;;;;;;;;;7.92;84.87;101778.22;5035498;28;20033;-41
2023/05/07 11:08:04;;;;;;;4.88;3.17;;;;;;;7.94;85.41;101770.91;5035325;28;19978;-41
2023/05/07 11:10:49;;;;;;;5.93;3.20;;;;;;;7.64;86.75;101773.19;5032496;28;20104;-39
2023/05/07 11:13:16;;;;;;;5.97;3.03;;;;;;;7.77;86.37;101766.53;5015631;28;20033;-39
2023/05/07 11:15:47;;;;;;;7.82;3.33;;;;;;;7.65;86.83;101774.03;5016998;28;20493;-39
2023/05/07 11:18:15;;;;;;;8.95;3.40;;;;;;;7.51;88.11;101772.84;5034970;28;20037;-39
2023/05/07 11:20:52;;;;;;;8.70;2.90;;;;;;;7.61;87.55;101776.22;5034658;28;20025;-39
2023/05/07 11:23:37;;;;;;;4.90;3.50;;;;;;;7.97;86.04;101775.91;5035037;28;20026;-39
2023/05/07 11:26:08;;;;;;;5.80;3.25;;;;;;;7.53;87.38;101772.69;5034794;28;20106;-39
2023/05/07 11:28:42;;;;;;;6.35;3.55;;;;;;;7.89;86.40;101767.91;5034456;28;20044;-39